createdAt,value
2019-05-23T00:01:19.533Z,13.49
2019-05-23T00:03:52.610Z,13.43
2019-05-23T00:06:23.682Z,13.37
2019-05-23T00:08:52.966Z,13.32
2019-05-23T00:11:40.602Z,13.30
2019-05-23T00:14:19.980Z,13.27
2019-05-23T00:16:49.067Z,13.23
2019-05-23T00:19:18.556Z,13.28
2019-05-23T00:21:47.112Z,13.20
2019-05-23T00:24:15.686Z,13.12
2019-05-23T00:26:44.894Z,13.08
2019-05-23T00:29:15.042Z,13.18
2019-05-23T00:31:45.444Z,13.16
2019-05-23T00:34:14.644Z,13.14
2019-05-23T00:36:45.849Z,13.05
2019-05-23T00:39:16.059Z,12.98
2019-05-23T00:41:45.968Z,12.95
2019-05-23T00:44:15.010Z,12.91
2019-05-23T00:46:45.347Z,12.98
2019-05-23T00:49:16.027Z,13.05
2019-05-23T00:51:46.428Z,13.05
2019-05-23T00:54:15.854Z,13.05
2019-05-23T00:56:44.483Z,13.02
2019-05-23T00:59:25.997Z,12.92
2019-05-23T01:01:43.845Z,12.85
2019-05-23T01:04:13.248Z,12.86
2019-05-23T01:06:42.499Z,12.84
2019-05-23T01:09:12.013Z,12.77
2019-05-23T01:11:41.010Z,12.73
2019-05-23T01:14:10.045Z,12.63
2019-05-23T01:16:38.913Z,12.46
2019-05-23T01:19:09.190Z,12.38
2019-05-23T01:21:42.422Z,12.33
2019-05-23T01:24:27.711Z,12.31
2019-05-23T01:26:57.250Z,12.34
2019-05-23T01:29:37.120Z,12.43
2019-05-23T01:31:59.100Z,12.53
2019-05-23T01:34:29.350Z,12.52
2019-05-23T01:36:58.899Z,12.46
2019-05-23T01:39:27.558Z,12.42
2019-05-23T01:41:56.542Z,12.35
2019-05-23T01:44:26.460Z,12.28
2019-05-23T01:46:56.100Z,12.12
2019-05-23T01:49:24.798Z,12.06
2019-05-23T01:51:53.933Z,11.99
2019-05-23T01:54:23.003Z,11.94
2019-05-23T01:56:52.410Z,11.88
2019-05-23T01:59:21.086Z,11.97
2019-05-23T02:01:49.767Z,11.98
2019-05-23T02:04:18.916Z,12.08
2019-05-23T02:06:47.885Z,12.05
2019-05-23T02:09:16.922Z,12.09
2019-05-23T02:11:45.500Z,11.96
2019-05-23T02:14:14.534Z,11.87
2019-05-23T02:16:44.573Z,11.85
2019-05-23T02:19:14.482Z,11.82
2019-05-23T02:21:43.164Z,11.78
2019-05-23T02:24:12.036Z,11.79
2019-05-23T02:26:40.972Z,11.74
2019-05-23T02:29:10.213Z,11.76
2019-05-23T02:31:40.368Z,11.84
2019-05-23T02:34:09.275Z,11.86
2019-05-23T02:36:38.492Z,11.82
2019-05-23T02:39:09.694Z,11.73
2019-05-23T02:41:51.739Z,11.68
2019-05-23T02:44:25.047Z,11.54
2019-05-23T02:46:56.521Z,11.51
2019-05-23T02:49:30.957Z,11.49
2019-05-23T02:52:03.073Z,11.49
2019-05-23T02:54:32.285Z,11.52
2019-05-23T02:57:04.129Z,11.59
2019-05-23T02:59:42.149Z,11.65
2019-05-23T03:02:34.915Z,11.69
2019-05-23T03:05:06.955Z,11.74
2019-05-23T03:07:36.001Z,11.58
2019-05-23T03:10:08.926Z,11.54
2019-05-23T03:12:38.819Z,11.49
2019-05-23T03:15:10.988Z,11.80
2019-05-23T03:17:42.981Z,12.44
2019-05-23T03:20:13.476Z,13.11
2019-05-23T03:22:46.386Z,13.75
2019-05-23T03:25:36.761Z,14.34
2019-05-23T03:28:08.278Z,14.97
2019-05-23T03:30:38.838Z,15.75
2019-05-23T03:33:12.307Z,16.34
2019-05-23T03:35:48.564Z,17.09
2019-05-23T03:38:17.126Z,17.66
2019-05-23T03:40:47.476Z,18.35
2019-05-23T03:43:16.070Z,19.13
2019-05-23T03:45:52.265Z,19.88
2019-05-23T03:48:21.571Z,20.67
2019-05-23T03:50:50.770Z,21.26
2019-05-23T03:53:20.905Z,21.75
2019-05-23T03:55:52.514Z,21.09
2019-05-23T03:58:23.238Z,21.79
2019-05-23T04:00:54.088Z,22.13
2019-05-23T04:03:24.615Z,22.92
2019-05-23T04:05:53.629Z,23.24
2019-05-23T04:08:23.679Z,23.04
2019-05-23T04:10:52.789Z,23.18
2019-05-23T04:13:21.689Z,23.43
2019-05-23T04:15:50.256Z,23.77
2019-05-23T04:18:19.171Z,24.06
2019-05-23T04:20:48.343Z,24.33
2019-05-23T04:23:18.251Z,25.52
2019-05-23T04:25:47.029Z,25.52
2019-05-23T04:28:15.846Z,26.19
2019-05-23T04:30:45.070Z,26.32
2019-05-23T04:33:14.016Z,25.47
2019-05-23T04:35:42.649Z,25.57
2019-05-23T04:38:11.599Z,26.21
2019-05-23T04:40:40.295Z,27.44
2019-05-23T04:43:08.937Z,28.01
2019-05-23T04:45:38.449Z,28.26
2019-05-23T04:48:07.727Z,28.17
2019-05-23T04:50:36.536Z,27.85
2019-05-23T04:53:05.532Z,27.28
2019-05-23T04:55:34.143Z,26.49
2019-05-23T04:58:04.853Z,25.60
2019-05-23T05:00:34.065Z,25.86
2019-05-23T05:03:03.549Z,26.60
2019-05-23T05:05:32.134Z,27.25
2019-05-23T05:08:00.834Z,27.62
2019-05-23T05:10:30.954Z,28.02
2019-05-23T05:12:59.877Z,28.72
2019-05-23T05:15:28.617Z,29.50
2019-05-23T05:17:57.294Z,29.97
2019-05-23T05:20:26.114Z,30.55
2019-05-23T05:22:54.707Z,30.81
2019-05-23T05:25:23.413Z,30.81
2019-05-23T05:27:52.065Z,31.13
2019-05-23T05:30:21.379Z,31.46
2019-05-23T05:32:50.170Z,31.23
2019-05-23T05:35:19.018Z,30.77
2019-05-23T05:37:47.667Z,29.97
2019-05-23T05:40:16.501Z,28.22
2019-05-23T05:42:46.098Z,26.89
2019-05-23T05:45:15.465Z,27.06
2019-05-23T05:47:44.135Z,26.78
2019-05-23T05:50:14.411Z,27.07
2019-05-23T05:52:43.277Z,26.51
2019-05-23T05:55:12.407Z,26.60
2019-05-23T05:57:41.034Z,26.35
2019-05-23T06:00:13.513Z,26.43
2019-05-23T06:02:42.114Z,25.71
2019-05-23T06:05:12.997Z,26.16
2019-05-23T06:07:42.421Z,26.05
2019-05-23T06:10:14.321Z,25.95
2019-05-23T06:12:43.123Z,25.95
2019-05-23T06:15:12.444Z,26.92
2019-05-23T06:17:41.793Z,27.72
2019-05-23T06:20:11.935Z,28.89
2019-05-23T06:22:41.852Z,29.58
2019-05-23T06:25:11.981Z,28.87
2019-05-23T06:27:41.056Z,30.25
2019-05-23T06:30:12.705Z,31.33
2019-05-23T06:32:41.337Z,30.39
2019-05-23T06:35:10.249Z,30.90
2019-05-23T06:37:39.805Z,31.27
2019-05-23T06:40:09.338Z,30.15
2019-05-23T06:42:38.646Z,31.41
2019-05-23T06:45:10.540Z,31.03
2019-05-23T06:47:39.820Z,31.31
2019-05-23T06:50:15.978Z,31.59
2019-05-23T06:52:44.723Z,29.89
2019-05-23T06:55:13.357Z,28.18
2019-05-23T06:57:42.137Z,27.91
2019-05-23T07:00:11.294Z,28.61
2019-05-23T07:02:40.511Z,28.86
2019-05-23T07:05:09.400Z,28.90
2019-05-23T07:07:38.854Z,28.61
2019-05-23T07:10:09.202Z,28.04
2019-05-23T07:12:37.878Z,26.71
2019-05-23T07:15:07.753Z,26.43
2019-05-23T07:17:36.627Z,26.35
2019-05-23T07:20:06.843Z,26.85
2019-05-23T07:22:35.750Z,25.62
2019-05-23T07:25:07.001Z,25.31
2019-05-23T07:27:35.944Z,24.65
2019-05-23T07:30:10.239Z,24.71
2019-05-23T07:32:39.028Z,24.77
2019-05-23T07:35:07.674Z,25.17
2019-05-23T07:37:36.228Z,25.00
2019-05-23T07:40:06.372Z,25.15
2019-05-23T07:42:35.112Z,26.37
2019-05-23T07:45:07.031Z,27.17
2019-05-23T07:47:39.463Z,27.72
2019-05-23T07:50:07.018Z,27.57
2019-05-23T07:52:35.844Z,27.23
2019-05-23T07:55:24.974Z,26.40
2019-05-23T07:57:54.264Z,24.78
2019-05-23T08:00:29.258Z,24.78
2019-05-23T08:03:03.525Z,24.31
2019-05-23T08:05:32.806Z,24.64
2019-05-23T08:08:01.413Z,24.69
2019-05-23T08:10:33.746Z,24.52
2019-05-23T08:13:00.887Z,25.18
2019-05-23T08:15:30.657Z,25.47
2019-05-23T08:17:59.273Z,26.53
2019-05-23T08:20:27.959Z,25.71
2019-05-23T08:22:56.603Z,24.40
2019-05-23T08:25:25.380Z,25.43
2019-05-23T08:27:54.838Z,26.46
2019-05-23T08:30:24.366Z,27.48
2019-05-23T08:32:52.891Z,27.92
2019-05-23T08:35:22.008Z,26.51
2019-05-23T08:37:50.659Z,26.07
2019-05-23T08:40:19.837Z,25.44
2019-05-23T08:42:48.472Z,24.39
2019-05-23T08:45:18.996Z,23.85
2019-05-23T08:47:47.653Z,23.58
2019-05-23T08:50:17.063Z,23.41
2019-05-23T08:52:45.802Z,23.28
2019-05-23T08:55:23.289Z,24.03
2019-05-23T08:57:53.901Z,23.87
2019-05-23T09:00:24.683Z,23.78
2019-05-23T09:02:58.244Z,23.62
2019-05-23T09:05:29.445Z,23.12
2019-05-23T09:07:58.016Z,22.63
2019-05-23T09:10:27.795Z,22.76
2019-05-23T09:12:56.513Z,23.10
2019-05-23T09:15:25.197Z,23.89
2019-05-23T09:17:54.397Z,23.74
2019-05-23T09:20:23.120Z,23.12
2019-05-23T09:22:52.067Z,22.70
2019-05-23T09:25:20.711Z,22.84
2019-05-23T09:27:51.164Z,22.74
2019-05-23T09:30:20.499Z,22.49
2019-05-23T09:32:49.141Z,22.44
2019-05-23T09:35:21.322Z,22.39
2019-05-23T09:37:48.551Z,21.72
2019-05-23T09:40:17.998Z,21.81
2019-05-23T09:42:46.620Z,22.08
2019-05-23T09:45:16.387Z,22.44
2019-05-23T09:47:45.117Z,22.82
2019-05-23T09:50:17.977Z,23.17
2019-05-23T09:52:47.010Z,23.37
2019-05-23T09:55:16.267Z,23.20
2019-05-23T09:57:44.909Z,22.95
2019-05-23T10:00:19.810Z,23.10
2019-05-23T10:02:48.377Z,23.12
2019-05-23T10:05:17.786Z,23.20
2019-05-23T10:07:46.449Z,23.42
2019-05-23T10:10:17.428Z,23.55
2019-05-23T10:12:46.062Z,23.34
2019-05-23T10:15:32.704Z,23.17
2019-05-23T10:18:17.406Z,23.49
2019-05-23T10:20:46.077Z,23.38
2019-05-23T10:23:14.712Z,23.11
2019-05-23T10:25:43.330Z,22.71
2019-05-23T10:28:12.011Z,22.82
2019-05-23T10:30:40.785Z,23.23
2019-05-23T10:33:12.765Z,23.13
2019-05-23T10:35:40.221Z,23.33
2019-05-23T10:38:08.791Z,23.54
2019-05-23T10:40:38.332Z,23.26
2019-05-23T10:43:07.401Z,23.37
2019-05-23T10:45:36.360Z,23.37
2019-05-23T10:48:07.003Z,22.82
2019-05-23T10:50:44.869Z,22.66
2019-05-23T10:53:06.432Z,22.76
2019-05-23T10:55:35.102Z,23.02
2019-05-23T10:58:04.622Z,23.07
2019-05-23T11:00:34.582Z,23.26
2019-05-23T11:03:03.487Z,23.25
2019-05-23T11:05:32.153Z,23.24
2019-05-23T11:08:02.817Z,23.09
2019-05-23T11:10:31.978Z,23.20
2019-05-23T11:13:00.476Z,23.18
2019-05-23T11:15:29.150Z,23.39
2019-05-23T11:17:57.847Z,23.43
2019-05-23T11:20:26.944Z,23.72
2019-05-23T11:22:55.565Z,23.18
2019-05-23T11:25:24.739Z,23.17
2019-05-23T11:27:53.465Z,23.47
2019-05-23T11:30:28.475Z,23.63
2019-05-23T11:32:57.247Z,23.72
2019-05-23T11:35:26.291Z,23.92
2019-05-23T11:37:55.154Z,24.13
2019-05-23T11:40:23.794Z,24.05
2019-05-23T11:42:53.041Z,23.90
2019-05-23T11:45:24.147Z,23.65
2019-05-23T11:47:52.696Z,23.36
2019-05-23T11:50:21.354Z,23.38
2019-05-23T11:52:50.033Z,23.34
2019-05-23T11:55:18.870Z,23.26
2019-05-23T11:57:47.392Z,23.29
2019-05-23T12:00:18.726Z,23.36
2019-05-23T12:02:48.276Z,23.44
2019-05-23T12:05:19.062Z,23.69
2019-05-23T12:07:48.130Z,23.61
2019-05-23T12:10:17.336Z,23.95
2019-05-23T12:12:45.978Z,24.05
2019-05-23T12:15:16.691Z,24.22
2019-05-23T12:17:45.753Z,24.10
2019-05-23T12:20:14.591Z,24.09
2019-05-23T12:22:43.799Z,24.20
2019-05-23T12:25:21.732Z,24.15
2019-05-23T12:27:44.538Z,24.02
2019-05-23T12:30:15.462Z,24.23
2019-05-23T12:32:44.023Z,24.40
2019-05-23T12:35:12.971Z,24.42
2019-05-23T12:37:41.728Z,24.44
2019-05-23T12:40:12.696Z,24.69
2019-05-23T12:42:41.367Z,24.54
2019-05-23T12:45:10.934Z,24.39
2019-05-23T12:47:56.185Z,24.50
2019-05-23T12:50:26.502Z,24.61
2019-05-23T12:52:55.092Z,24.28
2019-05-23T12:55:23.656Z,24.18
2019-05-23T12:57:52.345Z,23.88
2019-05-23T13:00:28.879Z,24.11
2019-05-23T13:02:57.640Z,23.74
2019-05-23T13:05:26.589Z,23.77
2019-05-23T13:07:55.356Z,23.72
2019-05-23T13:10:25.215Z,24.00
2019-05-23T13:12:54.241Z,24.15
2019-05-23T13:15:23.362Z,23.65
2019-05-23T13:17:52.080Z,23.44
2019-05-23T13:20:20.904Z,23.40
2019-05-23T13:22:49.472Z,23.26
2019-05-23T13:25:18.313Z,23.31
2019-05-23T13:27:47.130Z,22.77
2019-05-23T13:30:15.869Z,22.78
2019-05-23T13:32:44.585Z,22.75
2019-05-23T13:35:13.716Z,22.69
2019-05-23T13:37:53.111Z,22.69
2019-05-23T13:40:14.681Z,22.64
2019-05-23T13:42:43.587Z,22.61
2019-05-23T13:45:12.663Z,22.49
2019-05-23T13:47:41.167Z,22.67
2019-05-23T13:50:10.004Z,22.71
2019-05-23T13:52:38.740Z,22.87
2019-05-23T13:55:08.276Z,22.90
2019-05-23T13:57:37.389Z,22.88
2019-05-23T14:00:10.104Z,23.03
2019-05-23T14:02:38.902Z,23.03
2019-05-23T14:05:08.803Z,23.16
2019-05-23T14:07:38.744Z,23.52
2019-05-23T14:10:10.086Z,23.59
2019-05-23T14:12:39.284Z,23.70
2019-05-23T14:15:10.796Z,23.80
2019-05-23T14:17:45.452Z,23.70
2019-05-23T14:20:16.129Z,23.73
2019-05-23T14:22:59.122Z,23.61
2019-05-23T14:25:27.836Z,23.56
2019-05-23T14:28:01.017Z,23.44
2019-05-23T14:30:46.251Z,23.55
2019-05-23T14:33:16.653Z,23.56
2019-05-23T14:35:49.911Z,23.21
2019-05-23T14:38:30.184Z,23.47
2019-05-23T14:40:49.260Z,23.30
2019-05-23T14:43:25.701Z,23.03
2019-05-23T14:46:01.674Z,22.70
2019-05-23T14:48:32.170Z,22.80
2019-05-23T14:51:11.535Z,22.62
2019-05-23T14:53:59.954Z,22.91
2019-05-23T14:56:30.763Z,22.88
2019-05-23T14:58:59.512Z,22.70
2019-05-23T15:01:29.930Z,22.66
2019-05-23T15:03:58.565Z,22.40
2019-05-23T15:06:27.322Z,22.08
2019-05-23T15:08:55.984Z,22.18
2019-05-23T15:11:24.775Z,22.21
2019-05-23T15:13:53.744Z,22.33
2019-05-23T15:16:23.196Z,22.39
2019-05-23T15:18:51.859Z,22.34
2019-05-23T15:21:20.433Z,22.18
2019-05-23T15:23:49.089Z,22.07
2019-05-23T15:26:23.008Z,22.07
2019-05-23T15:28:47.957Z,21.82
2019-05-23T15:31:16.820Z,21.93
2019-05-23T15:33:45.845Z,21.97
2019-05-23T15:36:14.931Z,22.07
2019-05-23T15:38:43.498Z,22.14
2019-05-23T15:41:12.331Z,22.06
2019-05-23T15:43:40.867Z,22.04
2019-05-23T15:46:09.620Z,22.08
2019-05-23T15:48:38.759Z,21.88
2019-05-23T15:51:09.124Z,21.81
2019-05-23T15:53:48.363Z,21.87
2019-05-23T15:56:28.942Z,22.13
2019-05-23T15:59:11.425Z,22.03
2019-05-23T16:01:44.525Z,21.88
2019-05-23T16:04:14.997Z,22.02
2019-05-23T16:06:43.844Z,22.07
2019-05-23T16:09:28.606Z,22.03
2019-05-23T16:11:43.800Z,21.81
2019-05-23T16:14:12.886Z,21.89
2019-05-23T16:16:41.680Z,21.74
2019-05-23T16:19:10.346Z,21.46
2019-05-23T16:21:40.524Z,21.40
2019-05-23T16:24:09.259Z,21.28
2019-05-23T16:26:38.683Z,21.10
2019-05-23T16:29:08.216Z,21.00
2019-05-23T16:31:37.869Z,20.98
2019-05-23T16:34:06.622Z,20.77
2019-05-23T16:36:35.262Z,20.75
2019-05-23T16:39:05.763Z,20.67
2019-05-23T16:41:34.438Z,20.48
2019-05-23T16:44:03.263Z,20.27
2019-05-23T16:46:31.978Z,20.25
2019-05-23T16:49:00.595Z,20.37
2019-05-23T16:51:29.206Z,20.21
2019-05-23T16:53:58.463Z,20.04
2019-05-23T16:56:46.827Z,20.02
2019-05-23T16:59:19.839Z,19.92
2019-05-23T17:02:06.417Z,19.84
2019-05-23T17:04:42.748Z,19.86
2019-05-23T17:07:12.869Z,19.80
2019-05-23T17:10:06.126Z,19.80
2019-05-23T17:12:21.148Z,19.66
2019-05-23T17:14:59.743Z,19.69
2019-05-23T17:17:56.686Z,19.51
2019-05-23T17:20:18.642Z,19.42
2019-05-23T17:22:54.896Z,19.34
2019-05-23T17:25:41.364Z,19.27
2019-05-23T17:28:15.064Z,19.13
2019-05-23T17:30:45.329Z,19.05
2019-05-23T17:33:14.229Z,18.88
2019-05-23T17:35:42.851Z,18.82
2019-05-23T17:38:11.431Z,18.87
2019-05-23T17:40:40.043Z,18.73
2019-05-23T17:43:09.000Z,18.68
2019-05-23T17:45:37.931Z,18.58
2019-05-23T17:48:06.603Z,18.63
2019-05-23T17:50:35.335Z,18.58
2019-05-23T17:53:04.174Z,18.43
2019-05-23T17:55:33.515Z,18.35
2019-05-23T17:58:02.454Z,18.27
2019-05-23T18:00:35.866Z,18.20
2019-05-23T18:03:04.484Z,18.14
2019-05-23T18:05:33.823Z,18.11
2019-05-23T18:08:03.287Z,17.96
2019-05-23T18:10:43.990Z,17.87
2019-05-23T18:13:03.460Z,17.78
2019-05-23T18:15:32.796Z,17.68
2019-05-23T18:18:02.127Z,17.59
2019-05-23T18:20:31.694Z,17.41
2019-05-23T18:23:00.571Z,17.31
2019-05-23T18:25:30.022Z,17.30
2019-05-23T18:27:59.354Z,17.27
2019-05-23T18:30:33.178Z,17.30
2019-05-23T18:33:02.210Z,17.19
2019-05-23T18:35:31.073Z,17.05
2019-05-23T18:38:00.422Z,17.05
2019-05-23T18:40:29.162Z,16.95
2019-05-23T18:42:57.984Z,16.94
2019-05-23T18:45:28.327Z,17.00
2019-05-23T18:47:57.354Z,16.89
2019-05-23T18:50:26.498Z,16.88
2019-05-23T18:52:55.110Z,16.89
2019-05-23T18:55:24.397Z,16.90
2019-05-23T18:57:53.275Z,16.90
2019-05-23T19:00:24.867Z,16.90
2019-05-23T19:02:54.575Z,16.91
2019-05-23T19:05:26.738Z,16.80
2019-05-23T19:07:53.904Z,16.73
2019-05-23T19:10:22.839Z,16.74
2019-05-23T19:12:51.780Z,16.59
2019-05-23T19:15:20.527Z,16.54
2019-05-23T19:17:49.526Z,16.44
2019-05-23T19:20:18.568Z,16.39
2019-05-23T19:22:47.347Z,16.40
2019-05-23T19:25:16.379Z,16.26
2019-05-23T19:27:46.114Z,16.23
2019-05-23T19:30:14.927Z,16.23
2019-05-23T19:32:43.928Z,16.26
2019-05-23T19:35:13.141Z,16.20
2019-05-23T19:37:42.118Z,16.25
2019-05-23T19:40:12.833Z,16.24
2019-05-23T19:42:41.321Z,16.20
2019-05-23T19:45:11.826Z,16.14
2019-05-23T19:47:40.487Z,16.11
2019-05-23T19:50:09.689Z,16.03
2019-05-23T19:52:38.292Z,16.13
2019-05-23T19:55:07.828Z,16.12
2019-05-23T19:57:38.100Z,16.03
2019-05-23T20:00:09.261Z,15.97
2019-05-23T20:02:52.323Z,15.99
2019-05-23T20:05:25.621Z,15.86
2019-05-23T20:07:54.255Z,15.84
2019-05-23T20:10:23.981Z,15.74
2019-05-23T20:12:52.590Z,15.74
2019-05-23T20:15:22.462Z,15.75
2019-05-23T20:17:52.206Z,15.63
2019-05-23T20:20:20.982Z,15.58
2019-05-23T20:22:49.743Z,15.57
2019-05-23T20:25:18.590Z,15.49
2019-05-23T20:27:47.340Z,15.54
2019-05-23T20:30:35.769Z,15.55
2019-05-23T20:33:04.445Z,15.58
2019-05-23T20:35:32.996Z,15.65
2019-05-23T20:38:01.542Z,15.64
2019-05-23T20:40:30.677Z,15.65
2019-05-23T20:43:02.449Z,15.71
2019-05-23T20:45:29.804Z,15.69
2019-05-23T20:47:58.758Z,15.62
2019-05-23T20:50:27.378Z,15.65
2019-05-23T20:52:56.012Z,15.59
2019-05-23T20:55:24.765Z,15.59
2019-05-23T20:57:53.421Z,15.57
2019-05-23T21:00:36.127Z,15.48
2019-05-23T21:03:05.026Z,15.42
2019-05-23T21:05:33.712Z,15.45
2019-05-23T21:08:02.355Z,15.34
2019-05-23T21:10:42.835Z,15.33
2019-05-23T21:13:11.504Z,15.27
2019-05-23T21:15:40.966Z,15.24
2019-05-23T21:18:09.955Z,15.15
2019-05-23T21:20:38.562Z,15.09
2019-05-23T21:23:07.202Z,15.02
2019-05-23T21:25:37.490Z,15.02
2019-05-23T21:28:06.236Z,14.91
2019-05-23T21:30:35.469Z,14.88
2019-05-23T21:33:05.194Z,14.86
2019-05-23T21:35:34.048Z,14.78
2019-05-23T21:38:02.838Z,14.72
2019-05-23T21:40:34.399Z,14.70
2019-05-23T21:43:03.372Z,14.68
2019-05-23T21:45:31.925Z,14.64
2019-05-23T21:48:00.458Z,14.58
2019-05-23T21:50:29.112Z,14.52
2019-05-23T21:52:57.857Z,14.42
2019-05-23T21:55:37.063Z,14.37
2019-05-23T21:58:06.616Z,14.34
2019-05-23T22:01:06.979Z,14.29
2019-05-23T22:03:44.668Z,14.29
2019-05-23T22:06:14.987Z,14.28
2019-05-23T22:08:44.119Z,14.25
2019-05-23T22:11:13.718Z,14.20
2019-05-23T22:13:42.391Z,14.15
2019-05-23T22:16:11.085Z,14.08
2019-05-23T22:18:39.763Z,14.08
2019-05-23T22:21:08.593Z,14.07
2019-05-23T22:23:37.636Z,14.09
2019-05-23T22:26:06.768Z,13.96
2019-05-23T22:28:35.580Z,13.98
2019-05-23T22:31:04.260Z,14.03
2019-05-23T22:33:34.781Z,14.11
2019-05-23T22:36:03.880Z,14.13
2019-05-23T22:38:32.499Z,14.04
2019-05-23T22:41:01.183Z,14.11
2019-05-23T22:43:29.900Z,14.08
2019-05-23T22:45:58.679Z,14.10
2019-05-23T22:48:27.355Z,14.19
2019-05-23T22:50:56.093Z,14.17
2019-05-23T22:53:24.703Z,14.21
2019-05-23T22:55:53.384Z,14.23
2019-05-23T22:58:22.172Z,14.22
2019-05-23T23:00:51.138Z,14.27
2019-05-23T23:03:19.723Z,14.30
2019-05-23T23:05:48.375Z,14.26
2019-05-23T23:08:17.646Z,14.26
2019-05-23T23:10:46.320Z,14.31
2019-05-23T23:13:15.129Z,14.33
2019-05-23T23:15:43.948Z,14.22
2019-05-23T23:18:12.478Z,14.21
2019-05-23T23:20:41.172Z,14.16
2019-05-23T23:23:09.779Z,14.10
2019-05-23T23:25:38.412Z,14.12
2019-05-23T23:28:07.096Z,14.02
2019-05-23T23:30:43.208Z,14.01
2019-05-23T23:33:11.774Z,13.93
2019-05-23T23:35:40.413Z,13.81
2019-05-23T23:38:10.134Z,13.74
2019-05-23T23:40:38.761Z,13.71
2019-05-23T23:43:07.418Z,13.65
2019-05-23T23:45:54.103Z,13.57
2019-05-23T23:48:40.617Z,13.54
2019-05-23T23:51:27.075Z,13.46
2019-05-23T23:54:13.505Z,13.36
2019-05-23T23:57:00.185Z,13.31
2019-05-23T23:59:28.097Z,13.28
